createdAt,value
2022-12-22T00:03:12.823Z,12.32
2022-12-22T00:06:03.782Z,12.55
2022-12-22T00:08:50.103Z,12.25
2022-12-22T00:11:39.172Z,12.57
2022-12-22T00:14:32.671Z,12.64
2022-12-22T00:17:42.678Z,12.64
2022-12-22T00:20:36.482Z,12.52
2022-12-22T00:23:24.222Z,12.34
2022-12-22T00:26:10.588Z,12.70
2022-12-22T00:28:57.895Z,12.65
2022-12-22T00:31:45.067Z,12.69
2022-12-22T00:34:39.747Z,12.84
2022-12-22T00:37:30.890Z,12.86
2022-12-22T00:40:39.342Z,12.43
2022-12-22T00:43:34.956Z,12.83
2022-12-22T00:46:22.915Z,12.73
2022-12-22T00:49:15.684Z,12.42
2022-12-22T00:52:05.148Z,12.75
2022-12-22T00:54:53.379Z,12.86
2022-12-22T00:57:47.217Z,12.78
2022-12-22T01:00:38.457Z,12.62
2022-12-22T01:03:29.049Z,12.77
2022-12-22T01:06:18.685Z,12.73
2022-12-22T01:09:08.586Z,12.84
2022-12-22T01:11:55.690Z,12.82
2022-12-22T01:14:41.934Z,12.50
2022-12-22T01:17:29.024Z,12.89
2022-12-22T01:20:15.518Z,12.77
2022-12-22T01:23:01.729Z,12.63
2022-12-22T01:25:49.359Z,12.84
2022-12-22T01:28:36.875Z,12.89
2022-12-22T01:31:37.010Z,12.80
2022-12-22T01:34:24.048Z,12.82
2022-12-22T01:37:10.124Z,12.89
2022-12-22T01:39:59.266Z,12.77
2022-12-22T01:42:53.781Z,12.76
2022-12-22T01:45:44.083Z,12.82
2022-12-22T01:48:32.993Z,12.91
2022-12-22T01:51:25.593Z,12.79
2022-12-22T01:54:17.096Z,12.97
2022-12-22T01:57:07.204Z,13.03
2022-12-22T01:59:58.397Z,12.90
2022-12-22T02:02:46.560Z,13.09
2022-12-22T02:05:35.006Z,12.94
2022-12-22T02:08:36.354Z,12.56
2022-12-22T02:11:38.149Z,12.85
2022-12-22T02:14:39.655Z,13.03
2022-12-22T02:17:39.768Z,13.02
2022-12-22T02:20:54.232Z,13.17
2022-12-22T02:24:13.161Z,13.19
2022-12-22T02:27:26.101Z,13.10
2022-12-22T02:30:16.259Z,13.13
2022-12-22T02:33:10.145Z,12.96
2022-12-22T02:36:05.800Z,13.10
2022-12-22T02:39:05.329Z,13.13
2022-12-22T02:42:01.440Z,12.90
2022-12-22T02:45:01.565Z,13.07
2022-12-22T02:48:00.739Z,13.08
2022-12-22T02:50:54.420Z,13.13
2022-12-22T02:53:42.938Z,13.08
2022-12-22T02:56:30.325Z,13.07
2022-12-22T02:59:17.881Z,13.18
2022-12-22T03:02:07.851Z,13.21
2022-12-22T03:04:54.690Z,13.17
2022-12-22T03:07:40.574Z,13.13
2022-12-22T03:10:32.599Z,13.16
2022-12-22T03:13:19.852Z,13.20
2022-12-22T03:16:06.104Z,13.23
2022-12-22T03:18:57.250Z,13.00
2022-12-22T03:21:43.449Z,13.23
2022-12-22T03:24:36.127Z,13.09
2022-12-22T03:27:05.380Z,12.98
2022-12-22T03:29:33.875Z,13.07
2022-12-22T03:32:05.216Z,13.15
2022-12-22T03:34:35.295Z,13.01
2022-12-22T03:37:03.996Z,13.06
2022-12-22T03:39:33.757Z,13.14
2022-12-22T03:42:21.283Z,13.09
2022-12-22T03:45:07.526Z,13.11
2022-12-22T03:47:35.926Z,13.01
2022-12-22T03:50:08.616Z,13.23
2022-12-22T03:52:38.632Z,13.22
2022-12-22T03:55:09.753Z,13.15
2022-12-22T03:57:41.783Z,13.23
2022-12-22T04:00:13.011Z,13.12
2022-12-22T04:02:42.378Z,13.20
2022-12-22T04:05:13.940Z,13.30
2022-12-22T04:07:46.146Z,13.29
2022-12-22T04:10:32.601Z,13.44
2022-12-22T04:13:03.393Z,13.39
2022-12-22T04:15:34.251Z,13.35
2022-12-22T04:18:03.349Z,13.30
2022-12-22T04:20:33.510Z,13.30
2022-12-22T04:23:02.045Z,13.29
2022-12-22T04:25:31.258Z,13.34
2022-12-22T04:28:00.845Z,13.32
2022-12-22T04:30:29.556Z,13.25
2022-12-22T04:33:01.109Z,13.17
2022-12-22T04:35:30.078Z,13.22
2022-12-22T04:38:01.849Z,13.07
2022-12-22T04:40:31.216Z,12.96
2022-12-22T04:43:00.545Z,13.05
2022-12-22T04:45:29.190Z,13.03
2022-12-22T04:47:58.855Z,12.90
2022-12-22T04:50:28.005Z,12.94
2022-12-22T04:52:57.728Z,12.98
2022-12-22T04:55:27.936Z,13.00
2022-12-22T04:57:57.409Z,12.94
2022-12-22T05:00:26.535Z,12.80
2022-12-22T05:02:55.879Z,12.86
2022-12-22T05:05:24.517Z,12.88
2022-12-22T05:07:54.903Z,12.86
2022-12-22T05:10:23.421Z,12.98
2022-12-22T05:12:59.477Z,12.91
2022-12-22T05:15:31.877Z,12.94
2022-12-22T05:18:04.333Z,12.90
2022-12-22T05:20:33.629Z,12.82
2022-12-22T05:23:03.023Z,12.86
2022-12-22T05:25:35.514Z,12.79
2022-12-22T05:28:06.712Z,12.87
2022-12-22T05:30:35.748Z,13.03
2022-12-22T05:33:06.375Z,12.90
2022-12-22T05:35:34.946Z,12.46
2022-12-22T05:38:03.489Z,12.70
2022-12-22T05:40:32.749Z,12.70
2022-12-22T05:43:03.862Z,12.83
2022-12-22T05:45:35.748Z,12.80
2022-12-22T05:48:04.959Z,12.70
2022-12-22T05:50:33.625Z,12.44
2022-12-22T05:53:02.825Z,12.18
2022-12-22T05:55:31.230Z,12.56
2022-12-22T05:58:01.916Z,12.38
2022-12-22T06:00:33.813Z,12.08
2022-12-22T06:03:03.992Z,12.10
2022-12-22T06:05:36.745Z,12.15
2022-12-22T06:08:08.698Z,12.44
2022-12-22T06:10:38.290Z,12.45
2022-12-22T06:13:07.656Z,12.61
2022-12-22T06:15:38.653Z,12.80
2022-12-22T06:18:08.808Z,12.55
2022-12-22T06:20:38.779Z,12.44
2022-12-22T06:23:09.367Z,12.57
2022-12-22T06:25:39.491Z,12.64
2022-12-22T06:28:09.644Z,12.54
2022-12-22T06:30:41.366Z,12.66
2022-12-22T06:33:11.355Z,12.75
2022-12-22T06:35:39.885Z,12.55
2022-12-22T06:38:08.727Z,12.35
2022-12-22T06:40:37.699Z,12.35
2022-12-22T06:43:09.805Z,12.29
2022-12-22T06:45:42.799Z,12.21
2022-12-22T06:48:14.031Z,12.36
2022-12-22T06:50:43.447Z,12.29
2022-12-22T06:53:12.889Z,12.33
2022-12-22T06:55:52.358Z,12.33
2022-12-22T06:58:21.353Z,12.36
2022-12-22T07:00:51.727Z,12.38
2022-12-22T07:03:21.013Z,12.05
2022-12-22T07:05:50.848Z,12.23
2022-12-22T07:11:20.160Z,11.54
2022-12-22T07:13:49.916Z,11.78
2022-12-22T07:16:20.403Z,11.94
2022-12-22T07:18:49.244Z,11.84
2022-12-22T07:21:18.456Z,11.89
2022-12-22T07:23:47.811Z,11.67
2022-12-22T07:26:17.305Z,11.74
2022-12-22T07:28:45.724Z,11.52
2022-12-22T07:31:23.151Z,11.40
2022-12-22T07:33:53.526Z,11.13
2022-12-22T07:36:22.663Z,11.46
2022-12-22T07:38:52.817Z,10.99
2022-12-22T07:41:39.951Z,11.61
2022-12-22T07:44:10.792Z,11.71
2022-12-22T07:46:44.979Z,11.45
2022-12-22T07:49:31.907Z,11.54
2022-12-22T07:52:04.387Z,11.69
2022-12-22T07:54:41.687Z,11.67
2022-12-22T07:57:14.702Z,11.49
2022-12-22T07:59:43.535Z,11.33
2022-12-22T08:02:14.877Z,11.58
2022-12-22T08:04:44.900Z,11.74
2022-12-22T08:07:13.779Z,11.81
2022-12-22T08:09:45.864Z,11.89
2022-12-22T08:12:14.723Z,11.25
2022-12-22T08:14:46.228Z,11.20
2022-12-22T08:17:17.554Z,11.52
2022-12-22T08:19:46.439Z,11.48
2022-12-22T08:22:15.592Z,11.69
2022-12-22T08:24:45.332Z,11.71
2022-12-22T08:27:25.996Z,11.70
2022-12-22T08:30:00.043Z,11.69
2022-12-22T08:32:30.729Z,11.65
2022-12-22T08:34:59.615Z,11.53
2022-12-22T08:37:30.500Z,11.50
2022-12-22T08:40:05.069Z,11.45
2022-12-22T08:42:37.857Z,11.34
2022-12-22T08:45:09.493Z,11.19
2022-12-22T08:47:39.901Z,11.15
2022-12-22T08:50:16.974Z,11.13
2022-12-22T08:52:48.818Z,11.00
2022-12-22T08:55:19.515Z,10.96
2022-12-22T08:57:56.033Z,10.94
2022-12-22T09:00:25.893Z,10.85
2022-12-22T09:02:57.785Z,10.80
2022-12-22T09:05:26.620Z,10.67
2022-12-22T09:07:57.163Z,10.60
2022-12-22T09:10:26.094Z,10.77
2022-12-22T09:12:55.664Z,10.83
2022-12-22T09:15:24.172Z,10.71
2022-12-22T09:17:53.118Z,10.76
2022-12-22T09:20:24.182Z,10.67
2022-12-22T09:22:52.944Z,11.00
2022-12-22T09:25:22.201Z,11.10
2022-12-22T09:27:51.016Z,11.22
2022-12-22T09:30:19.806Z,11.03
2022-12-22T09:32:48.716Z,10.88
2022-12-22T09:35:18.495Z,10.97
2022-12-22T09:37:49.863Z,11.13
2022-12-22T09:40:22.107Z,11.03
2022-12-22T09:42:51.645Z,10.93
2022-12-22T09:45:21.388Z,10.72
2022-12-22T09:47:53.978Z,11.07
2022-12-22T09:50:27.390Z,10.60
2022-12-22T09:53:02.951Z,10.83
2022-12-22T09:55:42.247Z,10.85
2022-12-22T09:58:26.487Z,10.78
2022-12-22T10:01:10.380Z,10.88
2022-12-22T10:03:49.229Z,10.92
2022-12-22T10:06:22.777Z,10.69
2022-12-22T10:08:55.795Z,10.79
2022-12-22T10:11:29.755Z,10.70
2022-12-22T10:14:04.201Z,10.96
2022-12-22T10:16:33.606Z,11.05
2022-12-22T10:19:11.249Z,10.92
2022-12-22T10:26:28.774Z,11.27
2022-12-22T10:29:05.041Z,11.42
2022-12-22T10:31:37.003Z,11.36
2022-12-22T10:34:16.102Z,11.65
2022-12-22T10:36:49.773Z,11.64
2022-12-22T10:39:25.453Z,11.67
2022-12-22T10:42:01.910Z,11.88
2022-12-22T10:44:35.442Z,11.74
2022-12-22T10:47:20.043Z,12.07
2022-12-22T10:52:40.001Z,12.05
2022-12-22T10:55:21.983Z,11.98
2022-12-22T10:57:52.680Z,12.18
2022-12-22T11:00:29.294Z,12.08
2022-12-22T11:03:01.082Z,12.38
2022-12-22T11:05:30.757Z,12.60
2022-12-22T11:08:05.715Z,12.45
2022-12-22T11:10:40.444Z,12.70
2022-12-22T11:14:03.736Z,12.90
2022-12-22T11:16:41.798Z,12.92
2022-12-22T11:19:39.117Z,13.19
2022-12-22T11:22:24.065Z,13.40
2022-12-22T11:25:16.918Z,13.61
2022-12-22T11:27:59.591Z,13.69
2022-12-22T11:30:44.266Z,13.76
2022-12-22T11:33:34.681Z,13.86
2022-12-22T11:36:09.848Z,13.88
2022-12-22T11:38:48.483Z,14.03
2022-12-22T11:41:37.934Z,14.25
2022-12-22T11:44:50.566Z,13.98
2022-12-22T11:47:31.533Z,13.62
2022-12-22T11:51:01.812Z,13.92
2022-12-22T11:54:10.424Z,13.71
2022-12-22T11:56:54.549Z,13.64
2022-12-22T11:59:50.672Z,13.78
2022-12-22T12:02:57.964Z,13.48
2022-12-22T12:06:32.939Z,13.78
2022-12-22T12:09:39.859Z,13.29
2022-12-22T12:12:22.804Z,13.40
2022-12-22T12:15:18.291Z,13.46
2022-12-22T12:18:38.628Z,13.08
2022-12-22T12:21:28.701Z,13.30
2022-12-22T12:24:38.749Z,13.50
2022-12-22T12:27:37.123Z,13.16
2022-12-22T12:33:25.993Z,13.29
2022-12-22T12:36:19.262Z,13.40
2022-12-22T12:39:09.865Z,13.57
2022-12-22T12:42:02.014Z,13.55
2022-12-22T12:44:41.217Z,13.29
2022-12-22T12:47:36.371Z,12.80
2022-12-22T12:50:40.570Z,13.55
2022-12-22T12:53:24.668Z,13.43
2022-12-22T12:55:58.512Z,13.46
2022-12-22T12:58:59.384Z,13.30
2022-12-22T13:02:03.132Z,13.29
2022-12-22T13:05:13.984Z,13.48
2022-12-22T13:08:19.622Z,13.50
2022-12-22T13:12:01.140Z,13.48
2022-12-22T13:15:10.782Z,13.27
2022-12-22T13:17:54.062Z,12.60
2022-12-22T13:20:28.795Z,12.57
2022-12-22T13:23:00.337Z,12.60
2022-12-22T13:25:45.971Z,12.13
2022-12-22T13:28:19.444Z,11.83
2022-12-22T13:30:55.219Z,12.19
2022-12-22T13:33:31.106Z,11.81
2022-12-22T13:36:02.124Z,12.08
2022-12-22T13:38:35.348Z,12.18
2022-12-22T13:41:21.352Z,11.96
2022-12-22T13:44:01.609Z,11.77
2022-12-22T13:46:35.548Z,11.70
2022-12-22T13:49:05.236Z,11.33
2022-12-22T13:51:37.819Z,11.67
2022-12-22T13:54:17.912Z,11.05
2022-12-22T13:56:51.395Z,11.31
2022-12-22T13:59:29.101Z,11.25
2022-12-22T14:02:05.816Z,11.54
2022-12-22T14:04:35.153Z,11.45
2022-12-22T14:07:14.246Z,11.83
2022-12-22T14:09:55.634Z,11.51
2022-12-22T14:12:41.155Z,11.59
2022-12-22T14:15:18.140Z,11.53
2022-12-22T14:17:53.221Z,11.23
2022-12-22T14:20:26.267Z,11.01
2022-12-22T14:23:00.171Z,11.63
2022-12-22T14:25:33.184Z,11.47
2022-12-22T14:28:03.629Z,11.40
2022-12-22T14:30:38.848Z,11.54
2022-12-22T14:33:33.137Z,11.58
2022-12-22T14:36:25.644Z,11.12
2022-12-22T14:38:57.222Z,11.31
2022-12-22T14:41:46.633Z,11.17
2022-12-22T14:44:20.068Z,11.30
2022-12-22T14:47:12.107Z,11.27
2022-12-22T14:49:52.115Z,11.23
2022-12-22T14:52:27.991Z,10.72
2022-12-22T14:54:57.819Z,11.35
2022-12-22T14:57:35.108Z,11.57
2022-12-22T15:00:08.817Z,11.00
2022-12-22T15:02:41.125Z,10.78
2022-12-22T15:05:25.168Z,11.09
2022-12-22T15:08:06.035Z,10.60
2022-12-22T15:10:41.532Z,10.33
2022-12-22T15:13:26.716Z,11.09
2022-12-22T15:15:56.869Z,11.05
2022-12-22T15:18:28.477Z,11.12
2022-12-22T15:21:00.285Z,10.77
2022-12-22T15:23:29.310Z,10.80
2022-12-22T15:25:58.152Z,11.09
2022-12-22T15:28:27.115Z,11.27
2022-12-22T15:30:57.916Z,10.89
2022-12-22T15:33:27.466Z,10.97
2022-12-22T15:36:01.244Z,11.02
2022-12-22T15:38:36.707Z,10.82
2022-12-22T15:41:08.657Z,11.16
2022-12-22T15:43:57.069Z,10.85
2022-12-22T15:46:30.595Z,10.45
2022-12-22T15:49:00.028Z,10.95
2022-12-22T15:51:32.416Z,11.40
2022-12-22T15:54:02.992Z,11.19
2022-12-22T15:56:34.791Z,10.84
2022-12-22T15:59:03.867Z,11.15
2022-12-22T16:01:33.716Z,10.92
2022-12-22T16:04:02.840Z,10.91
2022-12-22T16:06:34.748Z,10.78
2022-12-22T16:09:07.285Z,10.79
2022-12-22T16:11:36.209Z,10.47
2022-12-22T16:14:05.029Z,11.11
2022-12-22T16:16:33.984Z,11.11
2022-12-22T16:22:39.039Z,11.21
2022-12-22T16:25:17.130Z,11.05
2022-12-22T16:33:38.890Z,10.97
2022-12-22T16:39:14.317Z,11.01
2022-12-22T16:42:00.506Z,10.64
2022-12-22T16:44:32.673Z,10.84
2022-12-22T16:47:18.458Z,10.76
2022-12-22T16:49:48.761Z,10.82
2022-12-22T16:52:26.643Z,11.09
2022-12-22T16:55:02.368Z,10.55
2022-12-22T16:57:45.170Z,10.34
2022-12-22T17:00:19.693Z,10.58
2022-12-22T17:03:01.890Z,10.60
2022-12-22T17:05:44.767Z,10.91
2022-12-22T17:08:27.255Z,10.58
2022-12-22T17:11:09.802Z,10.84
2022-12-22T17:13:40.687Z,10.74
2022-12-22T17:16:17.607Z,10.87
2022-12-22T17:18:46.596Z,10.74
2022-12-22T17:21:18.560Z,10.78
2022-12-22T17:23:49.804Z,11.04
2022-12-22T17:26:24.009Z,10.58
2022-12-22T17:28:53.568Z,10.79
2022-12-22T17:31:24.970Z,10.87
2022-12-22T17:33:54.089Z,11.13
2022-12-22T17:36:33.802Z,10.81
2022-12-22T17:39:06.339Z,11.01
2022-12-22T17:41:36.779Z,10.60
2022-12-22T17:44:05.592Z,11.25
2022-12-22T17:46:34.045Z,10.98
2022-12-22T17:49:02.799Z,11.19
2022-12-22T17:51:31.365Z,10.60
2022-12-22T17:54:00.340Z,11.12
2022-12-22T17:56:31.997Z,11.00
2022-12-22T17:59:01.788Z,11.32
2022-12-22T18:01:33.962Z,11.54
2022-12-22T18:04:02.979Z,10.80
2022-12-22T18:06:36.021Z,11.10
2022-12-22T18:09:05.381Z,11.26
2022-12-22T18:11:36.320Z,11.34
2022-12-22T18:14:07.899Z,11.29
2022-12-22T18:16:36.377Z,11.17
2022-12-22T18:19:05.571Z,11.46
2022-12-22T18:21:34.676Z,11.65
2022-12-22T18:24:05.013Z,11.67
2022-12-22T18:26:33.934Z,10.88
2022-12-22T18:29:04.240Z,10.92
2022-12-22T18:31:34.736Z,11.23
2022-12-22T18:34:03.924Z,10.89
2022-12-22T18:36:34.450Z,11.37
2022-12-22T18:39:05.726Z,11.55
2022-12-22T18:41:36.246Z,11.46
2022-12-22T18:44:05.153Z,11.38
2022-12-22T18:46:35.531Z,11.61
2022-12-22T18:49:06.067Z,11.44
2022-12-22T18:51:34.949Z,11.83
2022-12-22T18:54:04.208Z,11.86
2022-12-22T18:56:34.009Z,11.70
2022-12-22T18:59:02.604Z,11.67
2022-12-22T19:01:33.266Z,11.19
2022-12-22T19:04:05.751Z,11.30
2022-12-22T19:06:34.469Z,10.92
2022-12-22T19:09:04.291Z,11.21
2022-12-22T19:11:34.285Z,11.53
2022-12-22T19:14:02.955Z,11.20
2022-12-22T19:16:31.637Z,11.20
2022-12-22T19:19:01.735Z,11.77
2022-12-22T19:21:32.412Z,11.29
2022-12-22T19:24:01.890Z,11.77
2022-12-22T19:26:30.441Z,11.69
2022-12-22T19:29:02.340Z,11.56
2022-12-22T19:31:34.292Z,11.34
2022-12-22T19:34:06.591Z,11.62
2022-12-22T19:36:37.333Z,11.85
2022-12-22T19:39:06.303Z,11.82
2022-12-22T19:41:45.115Z,12.02
2022-12-22T19:44:21.822Z,11.94
2022-12-22T19:46:52.016Z,11.81
2022-12-22T19:49:24.899Z,11.84
2022-12-22T19:51:57.072Z,11.85
2022-12-22T19:54:28.211Z,11.77
2022-12-22T19:56:57.995Z,11.94
2022-12-22T19:59:38.544Z,12.04
2022-12-22T20:02:26.569Z,11.73
2022-12-22T20:04:56.755Z,12.27
2022-12-22T20:07:29.748Z,11.92
2022-12-22T20:09:58.197Z,11.85
2022-12-22T20:12:30.460Z,11.99
2022-12-22T20:14:59.251Z,12.21
2022-12-22T20:17:29.683Z,12.11
2022-12-22T20:19:58.322Z,12.00
2022-12-22T20:22:28.890Z,11.94
2022-12-22T20:24:58.186Z,12.40
2022-12-22T20:27:35.821Z,12.43
2022-12-22T20:30:05.150Z,12.47
2022-12-22T20:32:33.686Z,12.22
2022-12-22T20:35:06.492Z,12.52
2022-12-22T20:37:37.694Z,12.22
2022-12-22T20:40:20.840Z,12.52
2022-12-22T20:42:50.010Z,12.35
2022-12-22T20:45:21.249Z,12.54
2022-12-22T20:47:50.607Z,12.59
2022-12-22T20:50:26.094Z,12.55
2022-12-22T20:52:57.687Z,12.68
2022-12-22T20:55:28.520Z,12.63
2022-12-22T20:57:57.247Z,12.79
2022-12-22T21:00:29.211Z,12.84
2022-12-22T21:02:58.073Z,12.77
2022-12-22T21:05:26.701Z,12.65
2022-12-22T21:07:56.605Z,12.57
2022-12-22T21:10:27.235Z,12.60
2022-12-22T21:12:56.084Z,12.81
2022-12-22T21:15:28.485Z,12.86
2022-12-22T21:17:58.742Z,12.75
2022-12-22T21:20:30.872Z,12.56
2022-12-22T21:23:01.653Z,12.45
2022-12-22T21:25:30.634Z,12.84
2022-12-22T21:28:00.105Z,12.83
2022-12-22T21:30:29.738Z,12.78
2022-12-22T21:32:58.934Z,13.05
2022-12-22T21:35:32.503Z,12.98
2022-12-22T21:38:03.473Z,13.13
2022-12-22T21:40:34.071Z,13.11
2022-12-22T21:43:02.686Z,13.18
2022-12-22T21:45:35.806Z,13.24
2022-12-22T21:48:13.442Z,13.07
2022-12-22T21:50:42.531Z,13.22
2022-12-22T21:53:19.877Z,13.13
2022-12-22T21:55:51.713Z,13.16
2022-12-22T21:58:21.950Z,13.22
2022-12-22T22:00:51.415Z,13.40
2022-12-22T22:03:20.366Z,13.21
2022-12-22T22:05:49.937Z,13.16
2022-12-22T22:08:21.611Z,13.26
2022-12-22T22:10:50.210Z,13.31
2022-12-22T22:13:19.339Z,13.39
2022-12-22T22:15:48.082Z,13.33
2022-12-22T22:18:19.162Z,13.26
2022-12-22T22:20:51.068Z,13.25
2022-12-22T22:23:21.332Z,13.15
2022-12-22T22:25:57.117Z,13.24
2022-12-22T22:28:27.027Z,13.36
2022-12-22T22:30:55.735Z,13.29
2022-12-22T22:33:24.756Z,13.42
2022-12-22T22:35:54.032Z,13.41
2022-12-22T22:38:24.709Z,13.50
2022-12-22T22:40:53.310Z,13.26
2022-12-22T22:43:30.631Z,13.53
2022-12-22T22:45:59.409Z,13.37
2022-12-22T22:48:27.951Z,13.38
2022-12-22T22:50:56.618Z,13.42
2022-12-22T22:53:26.987Z,13.48
2022-12-22T22:55:55.745Z,13.51
2022-12-22T22:58:24.131Z,13.45
2022-12-22T23:00:52.980Z,13.23
2022-12-22T23:03:30.972Z,13.52
2022-12-22T23:06:03.394Z,13.56
2022-12-22T23:08:34.740Z,13.41
2022-12-22T23:11:05.056Z,13.36
2022-12-22T23:13:33.912Z,13.19
2022-12-22T23:16:05.115Z,13.32
2022-12-22T23:18:36.039Z,13.47
2022-12-22T23:21:08.473Z,13.38
2022-12-22T23:23:40.401Z,13.33
2022-12-22T23:26:10.757Z,13.39
2022-12-22T23:28:41.755Z,13.48
2022-12-22T23:31:15.153Z,13.39
2022-12-22T23:33:43.931Z,13.39
2022-12-22T23:36:12.853Z,13.44
2022-12-22T23:38:43.939Z,13.30
2022-12-22T23:41:19.120Z,13.30
2022-12-22T23:43:49.317Z,13.11
2022-12-22T23:46:20.549Z,12.66
2022-12-22T23:48:53.454Z,13.17
2022-12-22T23:51:23.871Z,12.77
2022-12-22T23:53:54.068Z,13.13
2022-12-22T23:56:22.599Z,13.12
2022-12-22T23:58:54.888Z,13.13
